createdAt,value
2022-12-31T00:01:14.791Z,6.32
2022-12-31T00:03:41.745Z,6.25
2022-12-31T00:06:21.585Z,6.22
2022-12-31T00:08:48.339Z,6.23
2022-12-31T00:11:15.193Z,6.39
2022-12-31T00:13:41.845Z,6.41
2022-12-31T00:16:13.719Z,6.45
2022-12-31T00:18:43.571Z,6.42
2022-12-31T00:21:10.289Z,6.48
2022-12-31T00:23:37.101Z,6.50
2022-12-31T00:26:05.105Z,6.60
2022-12-31T00:28:31.714Z,6.50
2022-12-31T00:31:04.630Z,6.54
2022-12-31T00:33:31.228Z,6.43
2022-12-31T00:36:10.355Z,6.51
2022-12-31T00:38:36.974Z,6.45
2022-12-31T00:41:03.720Z,6.38
2022-12-31T00:43:30.273Z,6.32
2022-12-31T00:45:56.823Z,6.13
2022-12-31T00:48:23.369Z,6.17
2022-12-31T00:50:50.042Z,6.29
2022-12-31T00:53:16.597Z,6.32
2022-12-31T00:55:43.241Z,6.37
2022-12-31T00:58:09.789Z,6.51
2022-12-31T01:00:37.133Z,6.52
2022-12-31T01:03:03.947Z,6.59
2022-12-31T01:05:31.466Z,6.62
2022-12-31T01:07:58.033Z,6.72
2022-12-31T01:10:24.818Z,6.86
2022-12-31T01:12:51.343Z,6.94
2022-12-31T01:15:17.997Z,6.87
2022-12-31T01:17:44.612Z,6.67
2022-12-31T01:20:11.453Z,6.72
2022-12-31T01:22:38.145Z,6.84
2022-12-31T01:25:05.126Z,6.87
2022-12-31T01:27:31.667Z,6.82
2022-12-31T01:29:58.235Z,6.82
2022-12-31T01:32:24.733Z,6.55
2022-12-31T01:34:51.442Z,6.50
2022-12-31T01:37:18.144Z,6.86
2022-12-31T01:39:44.746Z,7.04
2022-12-31T01:42:11.838Z,7.08
2022-12-31T01:44:38.281Z,7.11
2022-12-31T01:47:04.793Z,7.37
2022-12-31T01:49:44.872Z,7.38
2022-12-31T01:52:50.053Z,7.20
2022-12-31T01:55:38.721Z,7.29
2022-12-31T01:58:08.593Z,7.24
2022-12-31T02:00:35.250Z,7.20
2022-12-31T02:03:01.975Z,7.44
2022-12-31T02:05:33.326Z,7.46
2022-12-31T02:07:59.853Z,7.43
2022-12-31T02:10:26.443Z,7.34
2022-12-31T02:12:53.062Z,7.55
2022-12-31T02:15:21.461Z,7.81
2022-12-31T02:18:20.427Z,7.51
2022-12-31T02:21:05.775Z,7.48
2022-12-31T02:23:35.301Z,7.58
2022-12-31T02:26:34.336Z,7.64
2022-12-31T02:29:16.156Z,7.68
2022-12-31T02:31:49.819Z,7.62
2022-12-31T02:34:45.838Z,7.55
2022-12-31T02:37:12.511Z,7.75
2022-12-31T02:39:39.086Z,7.82
2022-12-31T02:42:05.623Z,7.87
2022-12-31T02:44:33.690Z,7.87
2022-12-31T02:47:09.358Z,8.00
2022-12-31T02:49:38.775Z,7.96
2022-12-31T02:52:34.901Z,7.95
2022-12-31T02:55:16.261Z,8.02
2022-12-31T02:57:52.817Z,8.11
2022-12-31T03:00:19.505Z,8.22
2022-12-31T03:02:46.413Z,8.14
2022-12-31T03:05:13.703Z,8.29
2022-12-31T03:07:40.580Z,8.23
2022-12-31T03:10:07.690Z,8.35
2022-12-31T03:12:34.419Z,8.35
2022-12-31T03:15:01.092Z,8.51
2022-12-31T03:17:27.787Z,8.53
2022-12-31T03:19:55.576Z,8.69
2022-12-31T03:22:22.229Z,8.61
2022-12-31T03:24:48.756Z,8.63
2022-12-31T03:27:15.433Z,8.81
2022-12-31T03:29:42.256Z,8.82
2022-12-31T03:32:08.820Z,8.76
2022-12-31T03:34:35.516Z,8.73
2022-12-31T03:37:02.169Z,9.04
2022-12-31T03:39:28.713Z,9.07
2022-12-31T03:41:55.267Z,8.97
2022-12-31T03:44:21.875Z,9.05
2022-12-31T03:46:48.468Z,9.03
2022-12-31T03:49:14.996Z,9.00
2022-12-31T03:51:41.717Z,9.02
2022-12-31T03:54:08.361Z,9.14
2022-12-31T03:56:35.015Z,9.11
2022-12-31T03:59:01.700Z,9.43
2022-12-31T04:01:28.264Z,9.27
2022-12-31T04:03:54.910Z,9.15
2022-12-31T04:06:21.629Z,9.23
2022-12-31T04:08:48.268Z,9.20
2022-12-31T04:11:20.666Z,9.31
2022-12-31T04:13:47.616Z,9.16
2022-12-31T04:16:14.240Z,9.04
2022-12-31T04:18:40.881Z,9.13
2022-12-31T04:21:07.485Z,9.04
2022-12-31T04:23:34.018Z,9.16
2022-12-31T04:26:00.560Z,9.10
2022-12-31T04:28:27.383Z,9.10
2022-12-31T04:30:53.947Z,9.10
2022-12-31T04:33:20.526Z,9.34
2022-12-31T04:35:47.075Z,9.22
2022-12-31T04:38:13.726Z,9.05
2022-12-31T04:40:40.350Z,9.11
2022-12-31T04:43:06.903Z,9.10
2022-12-31T04:45:33.630Z,9.28
2022-12-31T04:48:00.387Z,9.49
2022-12-31T04:50:26.957Z,9.40
2022-12-31T04:52:53.525Z,9.24
2022-12-31T04:55:20.061Z,9.43
2022-12-31T04:57:46.782Z,9.39
2022-12-31T05:00:13.628Z,9.44
2022-12-31T05:02:40.352Z,9.29
2022-12-31T05:05:07.540Z,9.26
2022-12-31T05:07:34.137Z,9.44
2022-12-31T05:10:00.785Z,9.52
2022-12-31T05:12:27.307Z,9.42
2022-12-31T05:14:53.930Z,9.49
2022-12-31T05:17:20.441Z,9.35
2022-12-31T05:19:47.009Z,9.32
2022-12-31T05:22:13.587Z,9.30
2022-12-31T05:24:40.190Z,9.41
2022-12-31T05:27:06.720Z,9.39
2022-12-31T05:29:33.328Z,9.24
2022-12-31T05:31:59.907Z,9.27
2022-12-31T05:34:26.481Z,9.10
2022-12-31T05:36:53.180Z,9.37
2022-12-31T05:39:19.911Z,9.31
2022-12-31T05:41:46.702Z,9.43
2022-12-31T05:44:13.249Z,9.74
2022-12-31T05:46:39.787Z,9.66
2022-12-31T05:49:06.363Z,9.49
2022-12-31T05:51:33.277Z,9.38
2022-12-31T05:53:59.823Z,9.47
2022-12-31T05:56:26.441Z,9.53
2022-12-31T05:58:53.079Z,9.55
2022-12-31T06:01:19.940Z,9.66
2022-12-31T06:03:46.651Z,9.74
2022-12-31T06:06:13.298Z,9.73
2022-12-31T06:08:39.921Z,9.77
2022-12-31T06:11:06.476Z,10.34
2022-12-31T06:13:33.235Z,10.33
2022-12-31T06:16:07.767Z,10.23
2022-12-31T06:18:34.522Z,10.37
2022-12-31T06:21:01.103Z,10.40
2022-12-31T06:23:27.732Z,10.35
2022-12-31T06:25:54.246Z,10.15
2022-12-31T06:28:20.908Z,10.06
2022-12-31T06:30:47.870Z,10.04
2022-12-31T06:33:14.567Z,10.36
2022-12-31T06:35:41.149Z,10.40
2022-12-31T06:38:07.779Z,10.50
2022-12-31T06:40:37.293Z,10.44
2022-12-31T06:43:03.947Z,10.38
2022-12-31T06:45:30.502Z,10.17
2022-12-31T06:47:57.094Z,10.23
2022-12-31T06:50:23.639Z,10.27
2022-12-31T06:52:50.193Z,10.35
2022-12-31T06:55:17.118Z,10.44
2022-12-31T06:57:44.007Z,10.40
2022-12-31T07:00:12.179Z,10.21
2022-12-31T07:02:58.470Z,10.28
2022-12-31T07:05:32.530Z,10.31
2022-12-31T07:08:33.254Z,10.22
2022-12-31T07:11:20.690Z,10.12
2022-12-31T07:14:29.133Z,10.12
2022-12-31T07:16:55.635Z,10.00
2022-12-31T07:19:42.398Z,9.83
2022-12-31T07:22:13.626Z,9.83
2022-12-31T07:24:41.303Z,9.80
2022-12-31T07:27:17.796Z,9.95
2022-12-31T07:29:56.205Z,10.13
2022-12-31T07:32:22.664Z,10.17
2022-12-31T07:35:10.683Z,9.92
2022-12-31T07:37:56.731Z,9.82
2022-12-31T07:40:29.335Z,9.62
2022-12-31T07:43:18.321Z,9.32
2022-12-31T07:45:56.933Z,9.25
2022-12-31T07:48:28.081Z,8.88
2022-12-31T07:50:55.504Z,9.07
2022-12-31T07:53:23.054Z,9.00
2022-12-31T07:55:55.107Z,8.81
2022-12-31T07:58:25.471Z,9.20
2022-12-31T08:00:52.027Z,9.29
2022-12-31T08:03:39.221Z,9.35
2022-12-31T08:06:12.442Z,9.20
2022-12-31T08:09:06.976Z,9.29
2022-12-31T08:11:42.482Z,9.64
2022-12-31T08:14:09.523Z,9.81
2022-12-31T08:16:36.627Z,9.88
2022-12-31T08:19:04.246Z,10.00
2022-12-31T08:21:36.726Z,9.79
2022-12-31T08:24:40.728Z,9.92
2022-12-31T08:27:15.057Z,9.90
2022-12-31T08:29:56.552Z,9.83
2022-12-31T08:32:36.913Z,9.83
2022-12-31T08:35:23.834Z,9.66
2022-12-31T08:38:11.535Z,9.76
2022-12-31T08:40:48.764Z,10.05
2022-12-31T08:43:31.919Z,10.34
2022-12-31T08:45:58.528Z,10.44
2022-12-31T08:48:41.088Z,10.44
2022-12-31T08:51:19.884Z,10.60
2022-12-31T08:53:46.705Z,10.71
2022-12-31T08:56:36.988Z,11.14
2022-12-31T08:59:15.267Z,11.80
2022-12-31T09:02:07.878Z,12.79
2022-12-31T09:04:53.941Z,13.03
2022-12-31T09:07:23.783Z,13.40
2022-12-31T09:10:04.531Z,12.37
2022-12-31T09:13:15.681Z,13.11
2022-12-31T09:15:55.568Z,13.80
2022-12-31T09:18:22.246Z,16.70
2022-12-31T09:20:48.887Z,19.88
2022-12-31T09:23:15.686Z,17.72
2022-12-31T09:26:11.063Z,19.98
2022-12-31T09:28:51.381Z,21.86
2022-12-31T09:31:24.117Z,23.27
2022-12-31T09:33:53.524Z,24.17
2022-12-31T09:36:25.227Z,22.18
2022-12-31T09:38:56.389Z,22.88
2022-12-31T09:41:53.125Z,22.71
2022-12-31T09:44:51.002Z,25.48
2022-12-31T09:47:29.708Z,25.11
2022-12-31T09:50:14.642Z,24.75
2022-12-31T09:52:47.543Z,24.32
2022-12-31T09:55:46.046Z,24.70
2022-12-31T09:58:21.719Z,24.97
2022-12-31T10:00:54.505Z,25.78
2022-12-31T10:03:50.270Z,24.54
2022-12-31T10:06:28.365Z,20.42
2022-12-31T10:09:16.379Z,18.05
2022-12-31T10:11:52.109Z,16.97
2022-12-31T10:14:42.415Z,16.24
2022-12-31T10:17:40.872Z,15.63
2022-12-31T10:20:38.839Z,14.60
2022-12-31T10:23:19.464Z,14.13
2022-12-31T10:25:57.234Z,14.62
2022-12-31T10:28:45.784Z,14.49
2022-12-31T10:31:49.638Z,14.37
2022-12-31T10:34:34.683Z,13.89
2022-12-31T10:37:08.874Z,14.11
2022-12-31T10:39:38.708Z,14.09
2022-12-31T10:42:30.731Z,14.10
2022-12-31T10:45:18.891Z,14.11
2022-12-31T10:47:53.248Z,13.96
2022-12-31T10:50:34.884Z,14.16
2022-12-31T10:53:26.103Z,14.17
2022-12-31T10:56:17.774Z,14.03
2022-12-31T10:58:53.082Z,14.17
2022-12-31T11:01:26.255Z,14.13
2022-12-31T11:04:01.908Z,14.22
2022-12-31T11:07:02.780Z,13.99
2022-12-31T11:09:41.172Z,14.11
2022-12-31T11:12:34.984Z,14.13
2022-12-31T11:15:13.765Z,14.00
2022-12-31T11:18:08.277Z,13.98
2022-12-31T11:20:53.398Z,13.95
2022-12-31T11:23:38.878Z,14.08
2022-12-31T11:26:11.227Z,14.00
2022-12-31T11:28:48.590Z,13.86
2022-12-31T11:31:15.035Z,13.95
2022-12-31T11:33:50.743Z,13.87
2022-12-31T11:36:19.852Z,13.75
2022-12-31T11:38:55.479Z,13.80
2022-12-31T11:41:46.706Z,13.57
2022-12-31T11:44:18.034Z,13.56
2022-12-31T11:48:03.909Z,13.64
2022-12-31T11:50:36.971Z,13.62
2022-12-31T11:53:21.096Z,13.94
2022-12-31T11:56:05.889Z,13.97
2022-12-31T11:58:32.463Z,14.08
2022-12-31T12:01:14.200Z,14.01
2022-12-31T12:03:40.896Z,13.97
2022-12-31T12:06:12.428Z,14.11
2022-12-31T12:08:39.039Z,14.26
2022-12-31T12:11:07.842Z,14.35
2022-12-31T12:13:34.444Z,14.25
2022-12-31T12:16:02.712Z,14.13
2022-12-31T12:18:36.383Z,14.17
2022-12-31T12:21:08.595Z,14.20
2022-12-31T12:23:35.480Z,14.19
2022-12-31T12:26:01.984Z,14.08
2022-12-31T12:28:30.949Z,14.07
2022-12-31T12:30:59.998Z,14.19
2022-12-31T12:33:27.248Z,14.13
2022-12-31T12:35:53.797Z,14.18
2022-12-31T12:38:21.973Z,14.25
2022-12-31T12:40:59.583Z,14.22
2022-12-31T12:43:27.993Z,14.23
2022-12-31T12:46:18.288Z,14.17
2022-12-31T12:48:46.399Z,14.30
2022-12-31T12:51:31.329Z,14.35
2022-12-31T12:54:03.605Z,14.33
2022-12-31T12:56:53.648Z,14.32
2022-12-31T12:59:45.586Z,14.28
2022-12-31T13:02:27.606Z,14.18
2022-12-31T13:05:05.619Z,14.05
2022-12-31T13:07:35.151Z,14.01
2022-12-31T13:10:09.196Z,14.03
2022-12-31T13:13:22.234Z,14.04
2022-12-31T13:15:47.565Z,13.89
2022-12-31T13:18:23.184Z,13.88
2022-12-31T13:21:01.755Z,13.78
2022-12-31T13:23:51.750Z,13.60
2022-12-31T13:26:34.059Z,13.80
2022-12-31T13:29:01.152Z,13.80
2022-12-31T13:31:31.793Z,13.81
2022-12-31T13:34:03.460Z,13.82
2022-12-31T13:36:30.063Z,13.81
2022-12-31T13:38:58.248Z,13.69
2022-12-31T13:41:57.400Z,13.60
2022-12-31T13:44:31.502Z,13.62
2022-12-31T13:47:13.286Z,13.53
2022-12-31T13:49:39.762Z,13.46
2022-12-31T13:52:27.737Z,13.38
2022-12-31T13:55:09.748Z,13.40
2022-12-31T13:57:43.077Z,13.34
2022-12-31T14:00:15.375Z,13.23
2022-12-31T14:02:49.815Z,13.13
2022-12-31T14:05:19.368Z,13.06
2022-12-31T14:07:57.163Z,12.93
2022-12-31T14:10:35.754Z,12.99
2022-12-31T14:13:09.349Z,12.97
2022-12-31T14:15:40.322Z,13.09
2022-12-31T14:18:16.285Z,13.09
2022-12-31T14:20:52.514Z,12.87
2022-12-31T14:23:56.566Z,12.90
2022-12-31T14:26:32.499Z,12.89
2022-12-31T14:29:33.402Z,12.33
2022-12-31T14:32:37.570Z,12.06
2022-12-31T14:35:19.394Z,11.82
2022-12-31T14:37:56.646Z,11.67
2022-12-31T14:40:30.671Z,11.45
2022-12-31T14:43:05.168Z,11.31
2022-12-31T14:45:54.623Z,11.02
2022-12-31T14:48:40.557Z,10.85
2022-12-31T14:51:07.005Z,10.84
2022-12-31T14:53:33.743Z,10.66
2022-12-31T14:56:07.516Z,10.60
2022-12-31T14:58:36.141Z,10.41
2022-12-31T15:01:04.489Z,10.34
2022-12-31T15:03:31.022Z,10.40
2022-12-31T15:06:23.931Z,10.27
2022-12-31T15:08:58.170Z,9.88
2022-12-31T15:11:33.853Z,9.75
2022-12-31T15:14:13.871Z,9.84
2022-12-31T15:16:43.501Z,9.94
2022-12-31T15:19:18.889Z,9.75
2022-12-31T15:21:51.414Z,9.70
2022-12-31T15:24:25.233Z,9.63
2022-12-31T15:26:59.815Z,9.45
2022-12-31T15:29:42.446Z,9.38
2022-12-31T15:32:18.408Z,9.18
2022-12-31T15:34:44.955Z,9.12
2022-12-31T15:38:00.081Z,8.95
2022-12-31T15:40:26.757Z,8.60
2022-12-31T15:43:14.490Z,8.63
2022-12-31T15:45:41.293Z,8.68
2022-12-31T15:48:16.924Z,8.54
2022-12-31T15:50:43.545Z,8.45
2022-12-31T15:53:16.407Z,8.39
2022-12-31T15:55:44.595Z,8.45
2022-12-31T15:58:15.969Z,8.44
2022-12-31T16:01:09.425Z,8.20
2022-12-31T16:03:36.242Z,8.19
2022-12-31T16:06:04.638Z,8.08
2022-12-31T16:08:33.268Z,7.74
2022-12-31T16:10:59.884Z,7.82
2022-12-31T16:13:27.198Z,7.80
2022-12-31T16:16:00.588Z,7.80
2022-12-31T16:18:36.565Z,7.77
2022-12-31T16:21:03.101Z,7.56
2022-12-31T16:23:30.266Z,7.73
2022-12-31T16:25:58.609Z,7.82
2022-12-31T16:28:29.761Z,7.79
2022-12-31T16:31:14.763Z,7.64
2022-12-31T16:33:41.366Z,7.52
2022-12-31T16:36:18.654Z,7.42
2022-12-31T16:38:45.237Z,7.48
2022-12-31T16:41:19.154Z,7.56
2022-12-31T16:43:46.865Z,7.58
2022-12-31T16:46:23.950Z,7.59
2022-12-31T16:48:57.253Z,7.52
2022-12-31T16:51:29.931Z,7.52
2022-12-31T16:53:56.598Z,7.48
2022-12-31T16:56:36.623Z,7.41
2022-12-31T16:59:04.883Z,7.16
2022-12-31T17:01:32.966Z,7.15
2022-12-31T17:04:02.402Z,7.11
2022-12-31T17:06:28.965Z,6.92
2022-12-31T17:08:55.390Z,6.98
2022-12-31T17:11:31.079Z,6.92
2022-12-31T17:14:06.492Z,6.94
2022-12-31T17:16:34.324Z,6.94
2022-12-31T17:19:00.963Z,6.81
2022-12-31T17:21:29.260Z,6.78
2022-12-31T17:23:59.445Z,6.68
2022-12-31T17:26:27.605Z,6.60
2022-12-31T17:28:54.704Z,6.63
2022-12-31T17:31:36.204Z,6.59
2022-12-31T17:34:06.994Z,6.55
2022-12-31T17:36:33.574Z,6.49
2022-12-31T17:39:21.048Z,6.36
2022-12-31T17:41:48.242Z,6.40
2022-12-31T17:44:28.386Z,6.39
2022-12-31T17:46:54.970Z,6.53
2022-12-31T17:49:28.499Z,6.54
2022-12-31T17:51:55.071Z,6.34
2022-12-31T17:54:21.680Z,6.41
2022-12-31T17:56:48.270Z,6.48
2022-12-31T17:59:21.053Z,6.41
2022-12-31T18:01:48.111Z,6.46
2022-12-31T18:04:16.001Z,6.43
2022-12-31T18:06:42.650Z,6.27
2022-12-31T18:09:09.265Z,6.08
2022-12-31T18:11:37.065Z,6.05
2022-12-31T18:14:03.616Z,6.02
2022-12-31T18:16:30.206Z,5.93
2022-12-31T18:18:57.476Z,5.88
2022-12-31T18:21:28.948Z,5.69
2022-12-31T18:26:22.843Z,5.25
2022-12-31T18:28:49.419Z,5.40
2022-12-31T18:31:25.969Z,5.46
2022-12-31T18:33:52.989Z,5.57
2022-12-31T18:36:19.911Z,5.64
2022-12-31T18:38:46.499Z,5.69
2022-12-31T18:41:20.589Z,5.86
2022-12-31T18:43:47.125Z,6.18
2022-12-31T18:46:14.547Z,6.18
2022-12-31T18:48:41.196Z,6.08
2022-12-31T18:51:14.106Z,6.03
2022-12-31T18:53:43.665Z,6.40
2022-12-31T18:56:15.951Z,6.30
2022-12-31T18:58:42.784Z,6.32
2022-12-31T19:01:38.117Z,6.13
2022-12-31T19:04:14.349Z,5.87
2022-12-31T19:06:41.050Z,5.84
2022-12-31T19:09:30.359Z,5.65
2022-12-31T19:11:54.119Z,5.61
2022-12-31T19:14:23.957Z,5.56
2022-12-31T19:16:51.073Z,5.48
2022-12-31T19:19:17.835Z,6.01
2022-12-31T19:21:44.711Z,5.93
2022-12-31T19:24:25.951Z,6.20
2022-12-31T19:26:53.245Z,5.95
2022-12-31T19:29:22.271Z,5.69
2022-12-31T19:31:48.991Z,5.58
2022-12-31T19:34:15.601Z,5.58
2022-12-31T19:36:44.231Z,5.70
2022-12-31T19:39:19.690Z,5.56
2022-12-31T19:41:48.222Z,5.61
2022-12-31T19:44:17.686Z,5.53
2022-12-31T19:46:44.641Z,5.29
2022-12-31T19:49:14.127Z,5.12
2022-12-31T19:51:40.962Z,5.45
2022-12-31T19:54:07.568Z,5.31
2022-12-31T19:56:34.103Z,5.25
2022-12-31T19:59:07.469Z,5.24
2022-12-31T20:01:34.185Z,5.10
2022-12-31T20:04:00.808Z,4.94
2022-12-31T20:06:27.394Z,4.85
2022-12-31T20:08:53.935Z,4.82
2022-12-31T20:11:21.893Z,4.96
2022-12-31T20:13:48.636Z,4.93
2022-12-31T20:16:16.527Z,4.53
2022-12-31T20:18:43.437Z,4.70
2022-12-31T20:21:17.333Z,4.68
2022-12-31T20:23:44.072Z,4.62
2022-12-31T20:26:12.104Z,4.85
2022-12-31T20:28:38.803Z,5.02
2022-12-31T20:31:09.731Z,5.17
2022-12-31T20:33:36.399Z,5.16
2022-12-31T20:36:03.970Z,5.02
2022-12-31T20:38:30.871Z,4.97
2022-12-31T20:41:08.064Z,5.02
2022-12-31T20:43:34.886Z,5.00
2022-12-31T20:46:14.499Z,5.04
2022-12-31T20:48:42.168Z,5.03
2022-12-31T20:51:08.712Z,4.99
2022-12-31T20:53:35.257Z,4.95
2022-12-31T20:56:05.749Z,4.86
2022-12-31T20:58:32.798Z,4.78
2022-12-31T21:00:59.804Z,4.59
2022-12-31T21:04:02.912Z,4.55
2022-12-31T21:06:13.205Z,4.41
2022-12-31T21:08:40.083Z,4.46
2022-12-31T21:11:06.721Z,4.45
2022-12-31T21:13:33.311Z,4.37
2022-12-31T21:16:00.948Z,4.24
2022-12-31T21:18:27.490Z,4.23
2022-12-31T21:20:54.014Z,4.32
2022-12-31T21:23:20.620Z,4.15
2022-12-31T21:25:49.725Z,4.13
2022-12-31T21:28:16.254Z,3.96
2022-12-31T21:30:43.068Z,3.98
2022-12-31T21:33:09.757Z,4.04
2022-12-31T21:35:48.711Z,4.02
2022-12-31T21:38:19.860Z,4.06
2022-12-31T21:40:46.458Z,3.96
2022-12-31T21:43:13.288Z,4.02
2022-12-31T21:45:39.861Z,4.00
2022-12-31T21:48:06.741Z,4.03
2022-12-31T21:50:33.583Z,3.90
2022-12-31T21:53:00.152Z,3.93
2022-12-31T21:55:26.712Z,3.72
2022-12-31T21:58:25.251Z,3.69
2022-12-31T22:00:42.650Z,3.67
2022-12-31T22:03:10.898Z,3.71
2022-12-31T22:05:37.488Z,3.68
2022-12-31T22:08:04.199Z,3.82
2022-12-31T22:10:37.103Z,3.71
2022-12-31T22:13:04.059Z,3.59
2022-12-31T22:15:30.619Z,3.57
2022-12-31T22:17:57.199Z,3.50
2022-12-31T22:20:28.180Z,3.29
2022-12-31T22:22:55.169Z,3.45
2022-12-31T22:25:21.708Z,3.45
2022-12-31T22:28:11.436Z,3.36
2022-12-31T22:30:35.533Z,3.45
2022-12-31T22:33:02.070Z,3.34
2022-12-31T22:35:28.622Z,3.20
2022-12-31T22:37:57.933Z,3.14
2022-12-31T22:40:26.860Z,2.95
2022-12-31T22:42:54.551Z,2.84
2022-12-31T22:45:21.121Z,2.98
2022-12-31T22:47:47.659Z,2.94
2022-12-31T22:50:14.234Z,2.87
2022-12-31T22:52:40.801Z,2.87
2022-12-31T22:55:08.034Z,2.78
2022-12-31T22:57:34.592Z,2.77
2022-12-31T23:00:01.354Z,2.75
2022-12-31T23:02:28.223Z,2.60
2022-12-31T23:05:15.587Z,2.71
2022-12-31T23:07:41.324Z,2.72
2022-12-31T23:10:09.383Z,2.72
2022-12-31T23:12:35.946Z,2.70
2022-12-31T23:15:02.515Z,2.76
2022-12-31T23:17:30.790Z,2.79
2022-12-31T23:19:59.122Z,2.64
2022-12-31T23:22:25.711Z,2.53
2022-12-31T23:24:52.286Z,2.59
2022-12-31T23:27:18.871Z,2.85
2022-12-31T23:29:47.547Z,2.92
2022-12-31T23:32:15.811Z,2.93
2022-12-31T23:34:43.053Z,3.00
2022-12-31T23:37:09.617Z,3.13
2022-12-31T23:39:36.468Z,2.89
2022-12-31T23:42:03.093Z,2.98
2022-12-31T23:44:29.641Z,2.92
2022-12-31T23:46:56.708Z,2.91
2022-12-31T23:49:23.312Z,2.91
2022-12-31T23:51:49.885Z,2.88
2022-12-31T23:54:16.424Z,2.98
2022-12-31T23:56:42.998Z,2.89
2022-12-31T23:59:09.663Z,2.83
